createdAt,value
2018-01-23T00:00:36.190Z,1010.72
2018-01-23T00:01:36.211Z,1010.75
2018-01-23T00:02:36.208Z,1010.76
2018-01-23T00:03:36.212Z,1010.79
2018-01-23T00:04:36.223Z,1010.75
2018-01-23T00:05:36.230Z,1010.76
2018-01-23T00:06:36.228Z,1010.83
2018-01-23T00:07:36.239Z,1010.79
2018-01-23T00:08:36.260Z,1010.79
2018-01-23T00:09:36.253Z,1010.87
2018-01-23T00:10:36.270Z,1010.82
2018-01-23T00:11:36.270Z,1010.83
2018-01-23T00:12:36.300Z,1010.89
2018-01-23T00:13:36.296Z,1010.87
2018-01-23T00:14:36.308Z,1010.87
2018-01-23T00:15:36.302Z,1010.90
2018-01-23T00:16:36.366Z,1010.96
2018-01-23T00:17:36.311Z,1010.92
2018-01-23T00:18:36.318Z,1010.88
2018-01-23T00:19:36.332Z,1010.89
2018-01-23T00:20:36.370Z,1010.89
2018-01-23T00:21:36.340Z,1010.95
2018-01-23T00:22:36.412Z,1010.97
2018-01-23T00:23:36.350Z,1010.91
2018-01-23T00:24:36.357Z,1010.93
2018-01-23T00:25:36.389Z,1010.92
2018-01-23T00:26:36.368Z,1010.94
2018-01-23T00:27:36.463Z,1011.03
2018-01-23T00:28:36.400Z,1011.04
2018-01-23T00:29:36.408Z,1011.03
2018-01-23T00:30:36.401Z,1011.00
2018-01-23T00:31:36.413Z,1010.96
2018-01-23T00:32:36.419Z,1011.01
2018-01-23T00:33:36.424Z,1010.99
2018-01-23T00:34:36.431Z,1011.04
2018-01-23T00:35:36.435Z,1011.06
2018-01-23T00:36:36.454Z,1011.00
2018-01-23T00:37:36.453Z,1011.01
2018-01-23T00:38:36.468Z,1011.04
2018-01-23T00:39:36.469Z,1011.04
2018-01-23T00:40:36.479Z,1011.01
2018-01-23T00:41:36.493Z,1011.05
2018-01-23T00:42:36.498Z,1011.05
2018-01-23T00:43:36.509Z,1011.07
2018-01-23T00:44:36.512Z,1011.12
2018-01-23T00:45:36.523Z,1011.12
2018-01-23T00:46:36.528Z,1011.16
2018-01-23T00:47:36.553Z,1011.15
2018-01-23T00:48:36.562Z,1011.16
2018-01-23T00:49:36.570Z,1011.13
2018-01-23T00:50:36.571Z,1011.14
2018-01-23T00:51:36.559Z,1011.11
2018-01-23T00:52:36.630Z,1011.11
2018-01-23T00:53:36.630Z,1011.16
2018-01-23T00:54:36.579Z,1011.15
2018-01-23T00:55:36.613Z,1011.12
2018-01-23T00:56:36.591Z,1011.07
2018-01-23T00:57:36.598Z,1011.13
2018-01-23T00:58:36.603Z,1011.11
2018-01-23T00:59:36.625Z,1011.09
2018-01-23T01:00:36.771Z,1011.14
2018-01-23T01:01:36.631Z,1011.14
2018-01-23T01:02:36.630Z,1011.08
2018-01-23T01:03:36.660Z,1011.11
2018-01-23T01:04:36.874Z,1011.10
2018-01-23T01:05:36.666Z,1011.13
2018-01-23T01:06:36.684Z,1011.13
2018-01-23T01:07:36.688Z,1011.19
2018-01-23T01:08:36.697Z,1011.19
2018-01-23T01:09:36.790Z,1011.19
2018-01-23T01:10:36.713Z,1011.21
2018-01-23T01:11:36.718Z,1011.24
2018-01-23T01:12:36.714Z,1011.25
2018-01-23T01:13:36.735Z,1011.22
2018-01-23T01:14:36.738Z,1011.20
2018-01-23T01:15:36.738Z,1011.30
2018-01-23T01:16:36.745Z,1011.31
2018-01-23T01:17:36.748Z,1011.34
2018-01-23T01:18:36.771Z,1011.36
2018-01-23T01:19:36.765Z,1011.40
2018-01-23T01:20:36.777Z,1011.42
2018-01-23T01:21:36.769Z,1011.41
2018-01-23T01:22:36.794Z,1011.42
2018-01-23T01:23:36.876Z,1011.37
2018-01-23T01:24:36.803Z,1011.45
2018-01-23T01:25:36.966Z,1011.39
2018-01-23T01:26:36.836Z,1011.43
2018-01-23T01:27:36.817Z,1011.43
2018-01-23T01:28:36.828Z,1011.42
2018-01-23T01:29:36.830Z,1011.45
2018-01-23T01:30:36.915Z,1011.38
2018-01-23T01:31:36.844Z,1011.45
2018-01-23T01:32:36.868Z,1011.44
2018-01-23T01:33:36.860Z,1011.43
2018-01-23T01:34:36.878Z,1011.44
2018-01-23T01:35:36.881Z,1011.47
2018-01-23T01:36:36.884Z,1011.44
2018-01-23T01:37:36.915Z,1011.46
2018-01-23T01:38:36.896Z,1011.44
2018-01-23T01:39:36.939Z,1011.46
2018-01-23T01:40:36.921Z,1011.48
2018-01-23T01:41:36.971Z,1011.51
2018-01-23T01:42:36.934Z,1011.48
2018-01-23T01:43:36.950Z,1011.48
2018-01-23T01:44:36.960Z,1011.47
2018-01-23T01:45:36.953Z,1011.50
2018-01-23T01:46:36.971Z,1011.55
2018-01-23T01:47:36.986Z,1011.58
2018-01-23T01:48:36.993Z,1011.60
2018-01-23T01:49:36.994Z,1011.58
2018-01-23T01:50:36.999Z,1011.57
2018-01-23T01:51:37.014Z,1011.62
2018-01-23T01:52:37.016Z,1011.62
2018-01-23T01:53:37.157Z,1011.69
2018-01-23T01:54:37.038Z,1011.64
2018-01-23T01:55:37.070Z,1011.65
2018-01-23T01:56:37.136Z,1011.61
2018-01-23T01:57:37.042Z,1011.63
2018-01-23T01:58:37.145Z,1011.64
2018-01-23T01:59:37.056Z,1011.67
2018-01-23T02:00:37.080Z,1011.70
2018-01-23T02:01:37.100Z,1011.67
2018-01-23T02:02:37.191Z,1011.70
2018-01-23T02:03:37.092Z,1011.70
2018-01-23T02:04:37.112Z,1011.69
2018-01-23T02:05:37.112Z,1011.69
2018-01-23T02:06:37.116Z,1011.72
2018-01-23T02:07:37.162Z,1011.75
2018-01-23T02:08:37.117Z,1011.76
2018-01-23T02:09:37.124Z,1011.77
2018-01-23T02:10:37.179Z,1011.78
2018-01-23T02:11:37.139Z,1011.82
2018-01-23T02:12:37.151Z,1011.79
2018-01-23T02:13:37.149Z,1011.80
2018-01-23T02:14:37.174Z,1011.80
2018-01-23T02:15:37.174Z,1011.79
2018-01-23T02:16:37.196Z,1011.78
2018-01-23T02:17:37.181Z,1011.82
2018-01-23T02:18:37.189Z,1011.81
2018-01-23T02:19:37.235Z,1011.84
2018-01-23T02:20:37.212Z,1011.85
2018-01-23T02:21:37.235Z,1011.89
2018-01-23T02:22:37.229Z,1011.89
2018-01-23T02:23:37.290Z,1011.88
2018-01-23T02:24:37.325Z,1011.94
2018-01-23T02:25:37.241Z,1011.97
2018-01-23T02:26:37.244Z,1012.01
2018-01-23T02:27:37.248Z,1011.99
2018-01-23T02:28:37.272Z,1012.02
2018-01-23T02:29:37.328Z,1012.01
2018-01-23T02:30:37.277Z,1012.04
2018-01-23T02:31:37.281Z,1012.03
2018-01-23T02:32:37.309Z,1012.07
2018-01-23T02:33:37.306Z,1012.05
2018-01-23T02:34:37.310Z,1012.04
2018-01-23T02:35:37.311Z,1012.03
2018-01-23T02:36:37.317Z,1012.04
2018-01-23T02:37:37.341Z,1012.06
2018-01-23T02:38:37.327Z,1012.03
2018-01-23T02:39:37.344Z,1012.09
2018-01-23T02:40:37.344Z,1012.04
2018-01-23T02:41:37.356Z,1012.01
2018-01-23T02:42:37.364Z,1012.03
2018-01-23T02:43:37.371Z,1012.02
2018-01-23T02:44:37.540Z,1012.03
2018-01-23T02:45:37.380Z,1012.01
2018-01-23T02:46:37.392Z,1012.02
2018-01-23T02:47:37.420Z,1012.07
2018-01-23T02:48:37.435Z,1012.07
2018-01-23T02:49:37.997Z,1012.09
2018-01-23T02:50:37.427Z,1012.08
2018-01-23T02:51:37.423Z,1012.12
2018-01-23T02:52:37.479Z,1012.14
2018-01-23T02:53:37.436Z,1012.18
2018-01-23T02:54:37.448Z,1012.09
2018-01-23T02:55:37.485Z,1012.21
2018-01-23T02:56:37.456Z,1012.17
2018-01-23T02:57:37.459Z,1012.21
2018-01-23T02:58:37.478Z,1012.23
2018-01-23T02:59:37.484Z,1012.24
2018-01-23T03:00:37.484Z,1012.21
2018-01-23T03:01:37.489Z,1012.25
2018-01-23T03:02:37.561Z,1012.19
2018-01-23T03:03:37.518Z,1012.24
2018-01-23T03:04:37.512Z,1012.23
2018-01-23T03:05:37.565Z,1012.25
2018-01-23T03:06:37.545Z,1012.22
2018-01-23T03:07:37.526Z,1012.26
2018-01-23T03:08:37.533Z,1012.25
2018-01-23T03:09:37.545Z,1012.25
2018-01-23T03:10:37.571Z,1012.26
2018-01-23T03:11:37.560Z,1012.33
2018-01-23T03:12:37.571Z,1012.36
2018-01-23T03:13:37.582Z,1012.29
2018-01-23T03:14:37.578Z,1012.30
2018-01-23T03:15:37.618Z,1012.32
2018-01-23T03:16:37.605Z,1012.34
2018-01-23T03:17:37.604Z,1012.37
2018-01-23T03:18:37.612Z,1012.38
2018-01-23T03:19:37.629Z,1012.35
2018-01-23T03:20:37.649Z,1012.40
2018-01-23T03:21:37.664Z,1012.39
2018-01-23T03:22:37.635Z,1012.41
2018-01-23T03:23:37.649Z,1012.42
2018-01-23T03:24:37.670Z,1012.47
2018-01-23T03:25:37.660Z,1012.54
2018-01-23T03:26:37.664Z,1012.49
2018-01-23T03:27:37.675Z,1012.53
2018-01-23T03:28:37.688Z,1012.49
2018-01-23T03:29:37.691Z,1012.53
2018-01-23T03:30:37.807Z,1012.55
2018-01-23T03:31:38.101Z,1012.50
2018-01-23T03:32:37.704Z,1012.52
2018-01-23T03:33:37.726Z,1012.55
2018-01-23T03:34:37.732Z,1012.58
2018-01-23T03:35:37.741Z,1012.57
2018-01-23T03:36:37.728Z,1012.58
2018-01-23T03:37:37.738Z,1012.59
2018-01-23T03:38:37.738Z,1012.59
2018-01-23T03:39:37.758Z,1012.56
2018-01-23T03:40:37.762Z,1012.54
2018-01-23T03:41:37.777Z,1012.55
2018-01-23T03:42:37.783Z,1012.56
2018-01-23T03:43:37.800Z,1012.58
2018-01-23T03:44:37.789Z,1012.55
2018-01-23T03:45:37.783Z,1012.56
2018-01-23T03:46:37.828Z,1012.60
2018-01-23T03:47:37.811Z,1012.58
2018-01-23T03:48:37.841Z,1012.60
2018-01-23T03:49:37.828Z,1012.56
2018-01-23T03:50:37.836Z,1012.62
2018-01-23T03:51:37.836Z,1012.66
2018-01-23T03:52:37.843Z,1012.70
2018-01-23T03:53:38.504Z,1012.63
2018-01-23T03:54:37.862Z,1012.64
2018-01-23T03:55:37.868Z,1012.66
2018-01-23T03:56:37.881Z,1012.68
2018-01-23T03:57:37.885Z,1012.67
2018-01-23T03:58:37.887Z,1012.69
2018-01-23T03:59:37.905Z,1012.69
2018-01-23T04:00:37.896Z,1012.66
2018-01-23T04:01:37.931Z,1012.71
2018-01-23T04:02:37.908Z,1012.72
2018-01-23T04:03:37.927Z,1012.72
2018-01-23T04:04:37.931Z,1012.74
2018-01-23T04:05:37.933Z,1012.77
2018-01-23T04:06:37.944Z,1012.76
2018-01-23T04:07:37.947Z,1012.80
2018-01-23T04:08:37.945Z,1012.84
2018-01-23T04:09:37.966Z,1012.84
2018-01-23T04:10:37.976Z,1012.80
2018-01-23T04:11:38.085Z,1012.77
2018-01-23T04:12:37.987Z,1012.79
2018-01-23T04:13:37.992Z,1012.86
2018-01-23T04:14:38.003Z,1012.83
2018-01-23T04:15:38.004Z,1012.85
2018-01-23T04:16:38.013Z,1012.90
2018-01-23T04:17:38.020Z,1012.89
2018-01-23T04:18:38.020Z,1012.91
2018-01-23T04:19:38.029Z,1012.96
2018-01-23T04:20:38.036Z,1012.92
2018-01-23T04:21:38.045Z,1012.92
2018-01-23T04:22:38.060Z,1012.93
2018-01-23T04:23:38.061Z,1012.89
2018-01-23T04:24:38.067Z,1012.94
2018-01-23T04:25:38.074Z,1012.98
2018-01-23T04:26:38.084Z,1013.05
2018-01-23T04:27:38.088Z,1013.06
2018-01-23T04:28:38.096Z,1013.06
2018-01-23T04:29:38.116Z,1013.04
2018-01-23T04:30:38.106Z,1013.04
2018-01-23T04:31:38.163Z,1012.98
2018-01-23T04:32:38.121Z,1012.99
2018-01-23T04:33:38.161Z,1012.99
2018-01-23T04:34:38.140Z,1013.05
2018-01-23T04:35:38.152Z,1013.03
2018-01-23T04:36:38.158Z,1013.10
2018-01-23T04:37:38.150Z,1013.12
2018-01-23T04:38:38.165Z,1013.11
2018-01-23T04:39:38.177Z,1013.16
2018-01-23T04:40:38.178Z,1013.15
2018-01-23T04:41:38.182Z,1013.19
2018-01-23T04:42:38.188Z,1013.22
2018-01-23T04:43:38.210Z,1013.20
2018-01-23T04:44:38.214Z,1013.20
2018-01-23T04:45:38.214Z,1013.17
2018-01-23T04:46:38.217Z,1013.17
2018-01-23T04:47:38.226Z,1013.14
2018-01-23T04:48:38.231Z,1013.22
2018-01-23T04:49:38.242Z,1013.20
2018-01-23T04:50:38.246Z,1013.23
2018-01-23T04:51:38.253Z,1013.26
2018-01-23T04:52:38.261Z,1013.23
2018-01-23T04:53:38.271Z,1013.28
2018-01-23T04:54:39.009Z,1013.35
2018-01-23T04:55:38.284Z,1013.32
2018-01-23T04:56:38.293Z,1013.32
2018-01-23T04:57:38.303Z,1013.35
2018-01-23T04:58:38.306Z,1013.36
2018-01-23T04:59:38.317Z,1013.31
2018-01-23T05:00:38.318Z,1013.35
2018-01-23T05:01:38.323Z,1013.42
2018-01-23T05:02:38.327Z,1013.39
2018-01-23T05:03:38.335Z,1013.41
2018-01-23T05:04:38.348Z,1013.44
2018-01-23T05:05:38.351Z,1013.39
2018-01-23T05:06:38.357Z,1013.48
2018-01-23T05:07:38.370Z,1013.45
2018-01-23T05:08:38.369Z,1013.42
2018-01-23T05:09:38.378Z,1013.39
2018-01-23T05:10:38.388Z,1013.44
2018-01-23T05:11:38.401Z,1013.44
2018-01-23T05:12:38.401Z,1013.45
2018-01-23T05:13:38.412Z,1013.45
2018-01-23T05:14:38.418Z,1013.47
2018-01-23T05:15:38.417Z,1013.47
2018-01-23T05:16:38.427Z,1013.54
2018-01-23T05:17:38.440Z,1013.49
2018-01-23T05:18:38.449Z,1013.52
2018-01-23T05:19:38.443Z,1013.49
2018-01-23T05:20:38.453Z,1013.51
2018-01-23T05:21:38.455Z,1013.46
2018-01-23T05:22:38.468Z,1013.49
2018-01-23T05:23:38.482Z,1013.53
2018-01-23T05:24:38.485Z,1013.45
2018-01-23T05:25:38.484Z,1013.53
2018-01-23T05:26:38.495Z,1013.55
2018-01-23T05:27:38.517Z,1013.50
2018-01-23T05:28:38.510Z,1013.51
2018-01-23T05:29:38.514Z,1013.53
2018-01-23T05:30:38.521Z,1013.51
2018-01-23T05:31:38.537Z,1013.45
2018-01-23T05:32:38.526Z,1013.49
2018-01-23T05:33:38.551Z,1013.51
2018-01-23T05:34:38.543Z,1013.48
2018-01-23T05:35:38.556Z,1013.46
2018-01-23T05:36:38.568Z,1013.50
2018-01-23T05:37:38.568Z,1013.54
2018-01-23T05:38:38.584Z,1013.54
2018-01-23T05:39:38.592Z,1013.58
2018-01-23T05:40:38.596Z,1013.59
2018-01-23T05:41:38.595Z,1013.60
2018-01-23T05:42:38.607Z,1013.65
2018-01-23T05:43:38.615Z,1013.67
2018-01-23T05:44:38.618Z,1013.66
2018-01-23T05:45:38.636Z,1013.71
2018-01-23T05:46:38.632Z,1013.71
2018-01-23T05:47:38.637Z,1013.71
2018-01-23T05:48:38.640Z,1013.74
2018-01-23T05:49:38.640Z,1013.73
2018-01-23T05:50:38.661Z,1013.73
2018-01-23T05:51:38.663Z,1013.75
2018-01-23T05:52:38.664Z,1013.80
2018-01-23T05:53:38.678Z,1013.74
2018-01-23T05:54:38.686Z,1013.81
2018-01-23T05:55:38.696Z,1013.80
2018-01-23T05:56:38.699Z,1013.84
2018-01-23T05:57:38.708Z,1013.83
2018-01-23T05:58:38.708Z,1013.82
2018-01-23T05:59:38.714Z,1013.86
2018-01-23T06:00:38.728Z,1013.83
2018-01-23T06:01:38.723Z,1013.84
2018-01-23T06:02:38.738Z,1013.86
2018-01-23T06:03:38.752Z,1013.86
2018-01-23T06:04:38.758Z,1013.89
2018-01-23T06:05:38.756Z,1013.95
2018-01-23T06:06:38.760Z,1013.90
2018-01-23T06:07:38.771Z,1013.96
2018-01-23T06:08:38.783Z,1013.95
2018-01-23T06:09:38.779Z,1013.92
2018-01-23T06:10:38.793Z,1013.96
2018-01-23T06:11:38.801Z,1013.96
2018-01-23T06:12:38.796Z,1013.97
2018-01-23T06:13:38.831Z,1013.94
2018-01-23T06:14:38.818Z,1014.01
2018-01-23T06:15:38.841Z,1013.99
2018-01-23T06:16:38.829Z,1014.01
2018-01-23T06:17:38.847Z,1013.96
2018-01-23T06:18:38.834Z,1014.02
2018-01-23T06:19:38.846Z,1014.02
2018-01-23T06:20:38.853Z,1013.98
2018-01-23T06:21:38.857Z,1014.04
2018-01-23T06:22:38.872Z,1014.00
2018-01-23T06:23:38.981Z,1014.05
2018-01-23T06:24:38.879Z,1014.03
2018-01-23T06:25:38.881Z,1014.04
2018-01-23T06:26:38.894Z,1014.03
2018-01-23T06:27:38.918Z,1014.04
2018-01-23T06:28:38.904Z,1014.03
2018-01-23T06:29:38.923Z,1014.06
2018-01-23T06:30:38.908Z,1014.06
2018-01-23T06:31:38.924Z,1014.08
2018-01-23T06:32:38.923Z,1014.07
2018-01-23T06:33:38.944Z,1014.08
2018-01-23T06:34:38.953Z,1014.09
2018-01-23T06:35:38.942Z,1014.11
2018-01-23T06:36:38.993Z,1014.07
2018-01-23T06:37:38.953Z,1014.09
2018-01-23T06:38:38.967Z,1014.09
2018-01-23T06:39:38.983Z,1014.13
2018-01-23T06:40:38.989Z,1014.13
2018-01-23T06:41:38.986Z,1014.14
2018-01-23T06:42:38.995Z,1014.12
2018-01-23T06:43:39.004Z,1014.10
2018-01-23T06:44:39.013Z,1014.12
2018-01-23T06:45:39.013Z,1014.14
2018-01-23T06:46:39.023Z,1014.10
2018-01-23T06:47:39.038Z,1014.08
2018-01-23T06:48:39.035Z,1014.12
2018-01-23T06:49:39.039Z,1014.12
2018-01-23T06:50:39.057Z,1014.19
2018-01-23T06:51:39.144Z,1014.23
2018-01-23T06:52:39.064Z,1014.19
2018-01-23T06:53:39.080Z,1014.20
2018-01-23T06:54:39.075Z,1014.18
2018-01-23T06:55:39.084Z,1014.20
2018-01-23T06:56:39.087Z,1014.22
2018-01-23T06:57:39.119Z,1014.27
2018-01-23T06:58:39.135Z,1014.24
2018-01-23T06:59:39.114Z,1014.27
2018-01-23T07:00:39.120Z,1014.28
2018-01-23T07:01:39.125Z,1014.29
2018-01-23T07:02:39.150Z,1014.32
2018-01-23T07:03:39.197Z,1014.29
2018-01-23T07:04:39.190Z,1014.28
2018-01-23T07:05:39.160Z,1014.30
2018-01-23T07:06:39.177Z,1014.31
2018-01-23T07:07:39.172Z,1014.33
2018-01-23T07:08:39.183Z,1014.29
2018-01-23T07:09:39.188Z,1014.31
2018-01-23T07:10:39.192Z,1014.34
2018-01-23T07:11:39.213Z,1014.37
2018-01-23T07:12:39.213Z,1014.39
2018-01-23T07:13:39.204Z,1014.36
2018-01-23T07:14:39.251Z,1014.39
2018-01-23T07:15:39.220Z,1014.42
2018-01-23T07:16:39.241Z,1014.38
2018-01-23T07:17:39.248Z,1014.38
2018-01-23T07:18:39.254Z,1014.36
2018-01-23T07:19:39.257Z,1014.39
2018-01-23T07:20:39.315Z,1014.40
2018-01-23T07:21:39.265Z,1014.40
2018-01-23T07:22:39.286Z,1014.39
2018-01-23T07:23:39.291Z,1014.42
2018-01-23T07:24:39.296Z,1014.42
2018-01-23T07:25:39.284Z,1014.44
2018-01-23T07:26:39.308Z,1014.43
2018-01-23T07:27:39.317Z,1014.46
2018-01-23T07:28:39.312Z,1014.44
2018-01-23T07:29:39.340Z,1014.43
2018-01-23T07:30:39.315Z,1014.45
2018-01-23T07:31:39.337Z,1014.46
2018-01-23T07:32:39.378Z,1014.47
2018-01-23T07:33:39.352Z,1014.47
2018-01-23T07:34:39.355Z,1014.53
2018-01-23T07:35:39.366Z,1014.51
2018-01-23T07:36:39.366Z,1014.51
2018-01-23T07:37:39.368Z,1014.48
2018-01-23T07:38:39.382Z,1014.51
2018-01-23T07:39:39.405Z,1014.59
2018-01-23T07:40:39.406Z,1014.54
2018-01-23T07:41:39.402Z,1014.58
2018-01-23T07:42:39.435Z,1014.56
2018-01-23T07:43:39.416Z,1014.58
2018-01-23T07:44:39.426Z,1014.62
2018-01-23T07:45:39.431Z,1014.63
2018-01-23T07:46:39.437Z,1014.64
2018-01-23T07:47:39.442Z,1014.67
2018-01-23T07:48:39.454Z,1014.64
2018-01-23T07:49:39.458Z,1014.65
2018-01-23T07:50:39.466Z,1014.64
2018-01-23T07:51:39.474Z,1014.72
2018-01-23T07:52:39.597Z,1014.70
2018-01-23T07:53:39.493Z,1014.70
2018-01-23T07:54:39.493Z,1014.70
2018-01-23T07:55:39.496Z,1014.76
2018-01-23T07:56:39.504Z,1014.77
2018-01-23T07:57:39.513Z,1014.78
2018-01-23T07:58:39.513Z,1014.73
2018-01-23T07:59:39.530Z,1014.76
2018-01-23T08:00:39.539Z,1014.79
2018-01-23T08:01:39.539Z,1014.77
2018-01-23T08:02:39.551Z,1014.82
2018-01-23T08:03:39.551Z,1014.80
2018-01-23T08:04:39.558Z,1014.77
2018-01-23T08:05:39.608Z,1014.81
2018-01-23T08:06:39.572Z,1014.77
2018-01-23T08:07:39.581Z,1014.83
2018-01-23T08:08:39.590Z,1014.82
2018-01-23T08:09:39.597Z,1014.85
2018-01-23T08:10:39.605Z,1014.83
2018-01-23T08:11:39.602Z,1014.81
2018-01-23T08:12:39.624Z,1014.84
2018-01-23T08:13:39.624Z,1014.88
2018-01-23T08:14:39.629Z,1014.90
2018-01-23T08:15:39.686Z,1014.93
2018-01-23T08:16:39.645Z,1014.94
2018-01-23T08:17:39.647Z,1014.97
2018-01-23T08:18:39.656Z,1014.97
2018-01-23T08:19:39.667Z,1014.98
2018-01-23T08:20:39.673Z,1015.00
2018-01-23T08:21:39.675Z,1014.97
2018-01-23T08:22:39.688Z,1014.97
2018-01-23T08:23:39.694Z,1015.00
2018-01-23T08:24:39.700Z,1015.02
2018-01-23T08:25:39.705Z,1015.00
2018-01-23T08:26:39.724Z,1015.02
2018-01-23T08:27:39.731Z,1015.03
2018-01-23T08:28:39.733Z,1015.00
2018-01-23T08:29:39.735Z,1014.99
2018-01-23T08:30:39.734Z,1014.97
2018-01-23T08:31:39.760Z,1014.95
2018-01-23T08:32:39.753Z,1014.91
2018-01-23T08:33:39.770Z,1014.93
2018-01-23T08:34:39.785Z,1014.95
2018-01-23T08:35:39.777Z,1014.91
2018-01-23T08:36:39.781Z,1014.89
2018-01-23T08:37:39.795Z,1014.95
2018-01-23T08:38:39.797Z,1014.98
2018-01-23T08:39:39.824Z,1014.95
2018-01-23T08:40:39.817Z,1015.01
2018-01-23T08:41:39.822Z,1014.98
2018-01-23T08:42:39.825Z,1014.97
2018-01-23T08:43:39.874Z,1015.02
2018-01-23T08:44:39.846Z,1015.02
2018-01-23T08:45:39.849Z,1015.04
2018-01-23T08:46:39.854Z,1015.03
2018-01-23T08:47:39.866Z,1015.02
2018-01-23T08:48:39.867Z,1014.95
2018-01-23T08:49:39.886Z,1014.98
2018-01-23T08:50:39.891Z,1015.02
2018-01-23T08:51:39.889Z,1015.02
2018-01-23T08:52:39.898Z,1014.97
2018-01-23T08:53:39.978Z,1015.00
2018-01-23T08:54:39.909Z,1014.98
2018-01-23T08:55:39.919Z,1014.94
2018-01-23T08:56:39.926Z,1014.92
2018-01-23T08:57:39.934Z,1014.91
2018-01-23T08:58:39.940Z,1014.93
2018-01-23T08:59:39.948Z,1014.97
2018-01-23T09:00:39.960Z,1014.93
2018-01-23T09:01:39.967Z,1014.97
2018-01-23T09:02:39.979Z,1014.95
2018-01-23T09:03:39.976Z,1015.06
2018-01-23T09:04:39.984Z,1015.06
2018-01-23T09:05:39.991Z,1015.06
2018-01-23T09:06:40.070Z,1015.06
2018-01-23T09:07:40.011Z,1015.04
2018-01-23T09:08:40.014Z,1015.07
2018-01-23T09:09:40.014Z,1015.06
2018-01-23T09:10:40.030Z,1015.05
2018-01-23T09:11:40.035Z,1015.10
2018-01-23T09:12:40.036Z,1015.06
2018-01-23T09:13:40.096Z,1015.10
2018-01-23T09:14:40.056Z,1015.13
2018-01-23T09:15:40.067Z,1015.17
2018-01-23T09:16:40.077Z,1015.16
2018-01-23T09:17:40.074Z,1015.19
2018-01-23T09:18:40.094Z,1015.18
2018-01-23T09:19:40.100Z,1015.18
2018-01-23T09:20:40.101Z,1015.18
2018-01-23T09:21:40.179Z,1015.15
2018-01-23T09:22:40.115Z,1015.15
2018-01-23T09:23:40.127Z,1015.13
2018-01-23T09:24:40.128Z,1015.10
2018-01-23T09:25:40.133Z,1015.13
2018-01-23T09:26:40.145Z,1015.15
2018-01-23T09:27:40.153Z,1015.18
2018-01-23T09:28:40.161Z,1015.15
2018-01-23T09:29:40.156Z,1015.14
2018-01-23T09:30:40.175Z,1015.16
2018-01-23T09:31:40.177Z,1015.18
2018-01-23T09:32:40.191Z,1015.18
2018-01-23T09:33:40.196Z,1015.18
2018-01-23T09:34:40.198Z,1015.20
2018-01-23T09:35:40.217Z,1015.20
2018-01-23T09:36:40.214Z,1015.19
2018-01-23T09:37:40.228Z,1015.18
2018-01-23T09:38:40.231Z,1015.18
2018-01-23T09:39:40.239Z,1015.17
2018-01-23T09:40:40.249Z,1015.16
2018-01-23T09:41:40.248Z,1015.18
2018-01-23T09:42:40.259Z,1015.19
2018-01-23T09:43:40.280Z,1015.18
2018-01-23T09:44:40.348Z,1015.18
2018-01-23T09:45:40.289Z,1015.11
2018-01-23T09:46:40.291Z,1015.19
2018-01-23T09:47:40.303Z,1015.18
2018-01-23T09:48:40.298Z,1015.17
2018-01-23T09:49:40.314Z,1015.16
2018-01-23T09:50:40.333Z,1015.14
2018-01-23T09:51:40.328Z,1015.15
2018-01-23T09:52:40.340Z,1015.16
2018-01-23T09:53:40.371Z,1015.13
2018-01-23T09:54:40.345Z,1015.16
2018-01-23T09:55:40.365Z,1015.18
2018-01-23T09:56:40.375Z,1015.14
2018-01-23T09:57:40.382Z,1015.10
2018-01-23T09:58:40.381Z,1015.07
2018-01-23T09:59:40.389Z,1015.08
2018-01-23T10:00:40.436Z,1015.12
2018-01-23T10:01:40.403Z,1015.20
2018-01-23T10:02:40.419Z,1015.19
2018-01-23T10:03:40.422Z,1015.19
2018-01-23T10:04:40.432Z,1015.13
2018-01-23T10:05:40.462Z,1015.17
2018-01-23T10:06:40.445Z,1015.19
2018-01-23T10:07:40.442Z,1015.21
2018-01-23T10:08:40.454Z,1015.15
2018-01-23T10:09:40.466Z,1015.20
2018-01-23T10:10:40.475Z,1015.17
2018-01-23T10:11:40.479Z,1015.19
2018-01-23T10:12:40.505Z,1015.17
2018-01-23T10:13:40.490Z,1015.25
2018-01-23T10:14:40.529Z,1015.24
2018-01-23T10:15:40.505Z,1015.19
2018-01-23T10:16:40.512Z,1015.18
2018-01-23T10:17:40.524Z,1015.23
2018-01-23T10:18:40.546Z,1015.24
2018-01-23T10:19:40.534Z,1015.30
2018-01-23T10:20:40.545Z,1015.31
2018-01-23T10:21:40.545Z,1015.28
2018-01-23T10:22:40.559Z,1015.26
2018-01-23T10:23:40.567Z,1015.18
2018-01-23T10:24:40.575Z,1015.16
2018-01-23T10:25:40.585Z,1015.28
2018-01-23T10:26:40.604Z,1015.20
2018-01-23T10:27:40.596Z,1015.19
2018-01-23T10:28:40.604Z,1015.15
2018-01-23T10:29:40.609Z,1015.17
2018-01-23T10:30:40.633Z,1015.11
2018-01-23T10:31:40.628Z,1015.12
2018-01-23T10:32:40.628Z,1015.13
2018-01-23T10:33:40.641Z,1015.12
2018-01-23T10:34:40.647Z,1015.13
2018-01-23T10:35:40.651Z,1015.11
2018-01-23T10:36:40.671Z,1015.07
2018-01-23T10:37:40.673Z,1015.05
2018-01-23T10:38:40.686Z,1015.07
2018-01-23T10:39:40.693Z,1015.13
2018-01-23T10:40:40.719Z,1015.10
2018-01-23T10:41:40.697Z,1015.09
2018-01-23T10:42:40.762Z,1015.06
2018-01-23T10:43:40.737Z,1015.08
2018-01-23T10:44:40.744Z,1015.04
2018-01-23T10:45:40.815Z,1015.03
2018-01-23T10:46:40.760Z,1015.07
2018-01-23T10:47:40.744Z,1015.03
2018-01-23T10:48:40.825Z,1015.06
2018-01-23T10:49:40.767Z,1015.05
2018-01-23T10:50:40.783Z,1014.86
2018-01-23T10:51:40.789Z,1014.92
2018-01-23T10:52:40.801Z,1014.89
2018-01-23T10:53:40.791Z,1014.91
2018-01-23T10:54:40.814Z,1014.88
2018-01-23T10:55:40.804Z,1014.87
2018-01-23T10:56:40.818Z,1014.86
2018-01-23T10:57:40.831Z,1014.85
2018-01-23T10:58:40.836Z,1014.90
2018-01-23T10:59:40.840Z,1014.93
2018-01-23T11:00:40.851Z,1014.93
2018-01-23T11:01:40.860Z,1014.95
2018-01-23T11:02:40.870Z,1014.95
2018-01-23T11:03:40.897Z,1014.98
2018-01-23T11:04:40.903Z,1014.99
2018-01-23T11:05:40.889Z,1014.95
2018-01-23T11:06:40.902Z,1014.94
2018-01-23T11:07:40.903Z,1014.94
2018-01-23T11:08:40.912Z,1014.91
2018-01-23T11:09:40.923Z,1014.93
2018-01-23T11:10:40.939Z,1014.88
2018-01-23T11:11:40.939Z,1014.89
2018-01-23T11:12:40.941Z,1014.81
2018-01-23T11:13:40.955Z,1014.83
2018-01-23T11:14:40.961Z,1014.85
2018-01-23T11:15:40.969Z,1014.83
2018-01-23T11:16:40.974Z,1014.82
2018-01-23T11:17:40.983Z,1014.81
2018-01-23T11:18:40.992Z,1014.81
2018-01-23T11:19:41.004Z,1014.78
2018-01-23T11:20:41.010Z,1014.74
2018-01-23T11:21:41.017Z,1014.76
2018-01-23T11:22:41.028Z,1014.72
2018-01-23T11:23:41.132Z,1014.74
2018-01-23T11:24:41.046Z,1014.73
2018-01-23T11:25:41.040Z,1014.78
2018-01-23T11:26:41.053Z,1014.73
2018-01-23T11:27:41.071Z,1014.79
2018-01-23T11:28:41.080Z,1014.74
2018-01-23T11:29:41.080Z,1014.75
2018-01-23T11:30:41.092Z,1014.75
2018-01-23T11:31:41.115Z,1014.77
2018-01-23T11:32:41.133Z,1014.71
2018-01-23T11:33:41.103Z,1014.72
2018-01-23T11:34:41.130Z,1014.73
2018-01-23T11:35:41.134Z,1014.72
2018-01-23T11:36:41.171Z,1014.70
2018-01-23T11:37:41.147Z,1014.62
2018-01-23T11:38:41.159Z,1014.65
2018-01-23T11:39:41.164Z,1014.64
2018-01-23T11:40:41.184Z,1014.58
2018-01-23T11:41:41.178Z,1014.67
2018-01-23T11:42:41.188Z,1014.71
2018-01-23T11:43:41.205Z,1014.66
2018-01-23T11:44:41.220Z,1014.65
2018-01-23T11:45:41.217Z,1014.70
2018-01-23T11:46:41.234Z,1014.68
2018-01-23T11:47:41.234Z,1014.65
2018-01-23T11:48:41.236Z,1014.63
2018-01-23T11:49:41.247Z,1014.61
2018-01-23T11:50:41.261Z,1014.54
2018-01-23T11:51:41.284Z,1014.61
2018-01-23T11:52:41.292Z,1014.59
2018-01-23T11:53:41.280Z,1014.66
2018-01-23T11:54:41.295Z,1014.64
2018-01-23T11:55:41.302Z,1014.60
2018-01-23T11:56:41.321Z,1014.58
2018-01-23T11:57:41.319Z,1014.61
2018-01-23T11:58:41.333Z,1014.63
2018-01-23T11:59:41.332Z,1014.57
2018-01-23T12:00:41.348Z,1014.61
2018-01-23T12:01:42.063Z,1014.59
2018-01-23T12:02:41.359Z,1014.57
2018-01-23T12:03:41.375Z,1014.57
2018-01-23T12:04:41.389Z,1014.45
2018-01-23T12:05:41.395Z,1014.53